Tropical Cyclones
[Index]
Main Index Home Page Stock Weather Photos Extreme Storms Discussion Storm News and Storm Chasing Reports Tropical Cyclones / Hurricanes / Typhoons Weather Data and Links Wild Fires / Bushfires Weather Observation Techniques Weather Picture Catalogue Tornado Pictures and Reports Stock Video Footage and DVDs for sale
Season 1992-1993 Tropical Cyclone KEN Track Map
Season 1992-1993 Summaries: [BoM-AU] [JTWC-AU] [JTWC-SIO] [JTWC-SPAC] [JTWC-SH]
<<- Previous TC | BoM 1992-1993 Season | Next TC ->>

click for intensity scale information  Lat/long Grid: Show Hide

 Date Labels: Show Hide

Bureau of Meteorology Tropical Cyclone Data

Name: KEN
Number: 753 / 199293_01

18 Dec 1992 00:00 UTC to 23 Dec 1992 00:00 UTC

    date/time    lat    long    hPa   cat  kts
1992-12-18 00   10.7    99.7   1000         27          
1992-12-18 06   11.3    99.5   1000         27          
1992-12-18 12   11.7    98.9   1000         27          
1992-12-18 18   12.0    98.2    995    1    35          
1992-12-19 00   12.3    97.5    995    1    35          
1992-12-19 03   12.5    97.2    995    1    35          
1992-12-19 06   12.7    96.9    990    1    41          
1992-12-19 09   12.9    96.6    990    1    41          
1992-12-19 12   13.2    96.2    990    1    41          
1992-12-19 18   13.5    95.6    995    1    35          
1992-12-20 00   13.9    94.9    995    1    35          
1992-12-20 06   14.4    94.2    995    1    35          
1992-12-20 12   14.9    93.4    995    1    35          
1992-12-20 18   15.5    92.5    995    1    35          
1992-12-21 00   15.8    91.5    995    1    35          
1992-12-21 06   15.8    90.6    995    1    35          
1992-12-21 12   15.7    90.0    995    1    35          
1992-12-21 18   15.6    89.3    995    1    35          
1992-12-22 00   15.3    88.6    995    1    35          
1992-12-22 06   15.1    87.7   1000         27          
1992-12-22 12   14.6    86.7   1000         27          
1992-12-22 18   14.2    85.6   1000         27          
1992-12-23 00   13.7    84.5   1000         27          
Winds are 10-min average.

Tropical cyclone tracks developed by Michael Bath using data from the Bureau of Meteorology and Google Maps.


[Australian Severe Weather index] [Copyright Notice] [Email Contacts] [Search This Site] [Privacy Policy]
Document: tropical_cyclone_ken.htm Updated: 30 May 2013